createdAt,value
2017-12-29T00:00:20.841Z,1.40
2017-12-29T00:02:48.409Z,1.40
2017-12-29T00:05:16.394Z,1.40
2017-12-29T00:07:43.979Z,1.40
2017-12-29T00:10:11.544Z,1.40
2017-12-29T00:12:39.108Z,1.40
2017-12-29T00:15:06.710Z,1.40
2017-12-29T00:17:34.289Z,1.40
2017-12-29T00:20:01.904Z,1.40
2017-12-29T00:22:29.479Z,1.40
2017-12-29T00:24:57.084Z,1.30
2017-12-29T00:27:24.650Z,1.40
2017-12-29T00:29:52.214Z,1.40
2017-12-29T00:32:19.816Z,1.40
2017-12-29T00:34:48.159Z,1.30
2017-12-29T00:37:15.770Z,1.30
2017-12-29T00:39:43.333Z,1.30
2017-12-29T00:42:10.948Z,1.40
2017-12-29T00:44:38.473Z,1.30
2017-12-29T00:47:06.050Z,1.30
2017-12-29T00:49:33.661Z,1.30
2017-12-29T00:52:01.996Z,1.30
2017-12-29T00:54:29.567Z,1.30
2017-12-29T00:56:57.088Z,1.30
2017-12-29T00:59:24.616Z,1.30
2017-12-29T01:01:52.962Z,1.30
2017-12-29T01:04:20.491Z,1.30
2017-12-29T01:06:48.085Z,1.30
2017-12-29T01:09:15.620Z,1.30
2017-12-29T01:11:43.190Z,1.30
2017-12-29T01:14:10.722Z,1.30
2017-12-29T01:16:38.247Z,1.30
2017-12-29T01:19:05.850Z,1.30
2017-12-29T01:21:33.415Z,1.20
2017-12-29T01:24:01.064Z,1.30
2017-12-29T01:26:28.600Z,1.30
2017-12-29T01:28:56.153Z,1.30
2017-12-29T01:31:23.686Z,1.20
2017-12-29T01:33:51.253Z,1.20
2017-12-29T01:36:19.589Z,1.20
2017-12-29T01:38:47.112Z,1.20
2017-12-29T01:41:14.655Z,1.20
2017-12-29T01:43:43.015Z,1.20
2017-12-29T01:46:10.543Z,1.20
2017-12-29T01:48:38.071Z,1.20
2017-12-29T01:51:05.630Z,1.20
2017-12-29T01:53:33.201Z,1.20
2017-12-29T01:56:00.769Z,1.20
2017-12-29T01:58:28.315Z,1.20
2017-12-29T02:00:55.850Z,1.20
2017-12-29T02:03:23.441Z,1.20
2017-12-29T02:05:50.964Z,1.20
2017-12-29T02:08:19.253Z,1.10
2017-12-29T02:10:47.666Z,1.20
2017-12-29T02:13:15.199Z,1.20
2017-12-29T02:15:42.776Z,1.20
2017-12-29T02:18:11.078Z,1.20
2017-12-29T02:20:38.608Z,1.20
2017-12-29T02:23:06.190Z,1.20
2017-12-29T02:25:33.715Z,1.20
2017-12-29T02:28:01.243Z,1.20
2017-12-29T02:30:28.812Z,1.20
2017-12-29T02:32:57.102Z,1.20
2017-12-29T02:35:25.493Z,1.10
2017-12-29T02:37:53.034Z,1.20
2017-12-29T02:40:21.327Z,1.20
2017-12-29T02:42:48.895Z,1.10
2017-12-29T02:45:16.419Z,1.20
2017-12-29T02:47:44.761Z,1.10
2017-12-29T02:50:12.292Z,1.20
2017-12-29T02:52:39.865Z,1.10
2017-12-29T02:55:07.422Z,1.20
2017-12-29T02:57:34.954Z,1.20
2017-12-29T03:00:03.277Z,1.10
2017-12-29T03:02:31.378Z,1.10
2017-12-29T03:04:58.944Z,1.10
2017-12-29T03:07:26.471Z,1.10
2017-12-29T03:09:53.996Z,1.10
2017-12-29T03:12:21.562Z,1.10
2017-12-29T03:14:49.118Z,1.10
2017-12-29T03:17:16.682Z,1.10
2017-12-29T03:19:44.207Z,1.10
2017-12-29T03:22:12.540Z,1.10
2017-12-29T03:24:40.068Z,1.10
2017-12-29T03:27:07.663Z,1.10
2017-12-29T03:29:35.191Z,1.10
2017-12-29T03:32:02.712Z,1.10
2017-12-29T03:34:30.278Z,1.10
2017-12-29T03:36:58.610Z,1.10
2017-12-29T03:39:26.129Z,1.10
2017-12-29T03:41:54.463Z,1.10
2017-12-29T03:44:21.997Z,1.10
2017-12-29T03:46:49.562Z,1.10
2017-12-29T03:49:17.131Z,1.00
2017-12-29T03:51:44.659Z,1.10
2017-12-29T03:54:12.223Z,1.10
2017-12-29T03:56:39.752Z,1.10
2017-12-29T03:59:08.103Z,1.10
2017-12-29T04:01:35.625Z,1.00
2017-12-29T04:04:03.191Z,1.00
2017-12-29T04:06:30.773Z,1.00
2017-12-29T04:08:58.320Z,1.00
2017-12-29T04:11:25.843Z,1.00
2017-12-29T04:13:53.407Z,1.00
2017-12-29T04:16:20.930Z,1.00
2017-12-29T04:18:48.490Z,1.00
2017-12-29T04:21:16.016Z,1.00
2017-12-29T04:23:43.586Z,1.00
2017-12-29T04:26:11.107Z,1.00
2017-12-29T04:28:38.672Z,1.00
2017-12-29T04:31:06.202Z,1.00
2017-12-29T04:33:34.536Z,1.00
2017-12-29T04:36:02.062Z,1.00
2017-12-29T04:38:29.634Z,1.00
2017-12-29T04:40:57.164Z,1.00
2017-12-29T04:43:25.507Z,1.00
2017-12-29T04:45:53.027Z,1.00
2017-12-29T04:48:20.591Z,1.00
2017-12-29T04:50:48.124Z,1.00
2017-12-29T04:53:16.454Z,1.00
2017-12-29T04:55:43.982Z,1.00
2017-12-29T04:58:11.559Z,1.00
2017-12-29T05:00:39.081Z,1.00
2017-12-29T05:03:06.647Z,1.00
2017-12-29T05:05:34.195Z,1.00
2017-12-29T05:08:02.528Z,1.00
2017-12-29T05:10:30.057Z,0.90
2017-12-29T05:12:57.628Z,1.00
2017-12-29T05:15:25.152Z,1.00
2017-12-29T05:17:52.747Z,0.90
2017-12-29T05:20:20.276Z,0.90
2017-12-29T05:22:47.843Z,0.90
2017-12-29T05:25:15.372Z,1.00
2017-12-29T05:27:43.708Z,0.90
2017-12-29T05:30:11.230Z,0.90
2017-12-29T05:32:38.800Z,0.90
2017-12-29T05:35:06.375Z,0.90
2017-12-29T05:37:33.910Z,0.90
2017-12-29T05:40:01.480Z,0.90
2017-12-29T05:42:29.002Z,0.90
2017-12-29T05:44:57.340Z,0.90
2017-12-29T05:47:24.888Z,0.90
2017-12-29T05:49:52.463Z,0.90
2017-12-29T05:52:20.018Z,0.90
2017-12-29T05:54:47.582Z,0.90
2017-12-29T05:57:15.112Z,0.90
2017-12-29T05:59:42.679Z,0.90
2017-12-29T06:02:10.208Z,0.90
2017-12-29T06:04:38.534Z,0.90
2017-12-29T06:07:06.062Z,0.80
2017-12-29T06:09:33.630Z,0.80
2017-12-29T06:12:01.183Z,0.80
2017-12-29T06:14:28.750Z,0.80
2017-12-29T06:16:56.279Z,0.80
2017-12-29T06:19:24.610Z,0.80
2017-12-29T06:21:52.141Z,0.80
2017-12-29T06:24:19.711Z,0.80
2017-12-29T06:26:47.276Z,0.80
2017-12-29T06:29:14.842Z,0.80
2017-12-29T06:31:42.494Z,0.80
2017-12-29T06:34:10.127Z,0.80
2017-12-29T06:36:37.734Z,0.80
2017-12-29T06:39:05.262Z,0.80
2017-12-29T06:41:32.784Z,0.80
2017-12-29T06:44:00.356Z,0.80
2017-12-29T06:46:28.694Z,0.80
2017-12-29T06:48:56.216Z,0.70
2017-12-29T06:51:23.779Z,0.80
2017-12-29T06:53:51.302Z,0.80
2017-12-29T06:56:18.872Z,0.80
2017-12-29T06:58:47.187Z,0.80
2017-12-29T07:01:14.759Z,0.70
2017-12-29T07:03:42.279Z,0.80
2017-12-29T07:06:10.882Z,0.70
2017-12-29T07:08:38.404Z,0.70
2017-12-29T07:11:06.738Z,0.70
2017-12-29T07:13:34.272Z,0.80
2017-12-29T07:16:01.848Z,0.70
2017-12-29T07:18:29.383Z,0.80
2017-12-29T07:20:56.951Z,0.70
2017-12-29T07:23:24.473Z,0.70
2017-12-29T07:25:52.044Z,0.70
2017-12-29T07:28:20.336Z,0.70
2017-12-29T07:30:47.904Z,0.70
2017-12-29T07:33:15.431Z,0.70
2017-12-29T07:35:43.771Z,0.80
2017-12-29T07:38:11.291Z,0.70
2017-12-29T07:40:38.855Z,0.80
2017-12-29T07:43:06.411Z,0.70
2017-12-29T07:45:33.978Z,0.70
2017-12-29T07:48:01.507Z,0.80
2017-12-29T07:50:29.866Z,0.80
2017-12-29T07:52:57.387Z,0.70
2017-12-29T07:55:24.964Z,0.80
2017-12-29T07:57:52.500Z,0.70
2017-12-29T08:00:20.072Z,0.70
2017-12-29T08:02:47.624Z,0.80
2017-12-29T08:05:15.195Z,0.80
2017-12-29T08:07:42.725Z,0.80
2017-12-29T08:10:10.290Z,0.80
2017-12-29T08:12:37.812Z,0.80
2017-12-29T08:15:05.380Z,0.80
2017-12-29T08:17:33.666Z,0.80
2017-12-29T08:20:02.000Z,0.80
2017-12-29T08:22:29.526Z,0.80
2017-12-29T08:24:57.095Z,0.80
2017-12-29T08:27:24.624Z,0.80
2017-12-29T08:29:52.955Z,0.80
2017-12-29T08:32:20.480Z,0.80
2017-12-29T08:34:48.053Z,0.80
2017-12-29T08:37:15.579Z,0.80
2017-12-29T08:39:43.916Z,0.80
2017-12-29T08:42:11.440Z,0.80
2017-12-29T08:44:39.050Z,0.80
2017-12-29T08:47:06.580Z,0.80
2017-12-29T08:49:34.152Z,0.80
2017-12-29T08:52:01.677Z,0.90
2017-12-29T08:54:29.250Z,0.90
2017-12-29T08:56:56.780Z,0.90
2017-12-29T08:59:24.350Z,0.90
2017-12-29T09:01:51.880Z,0.90
2017-12-29T09:04:20.211Z,0.90
2017-12-29T09:06:47.758Z,0.90
2017-12-29T09:09:15.320Z,0.90
2017-12-29T09:11:42.848Z,0.90
2017-12-29T09:14:11.200Z,1.00
2017-12-29T09:16:39.504Z,0.90
2017-12-29T09:19:07.858Z,0.90
2017-12-29T09:21:35.388Z,0.90
2017-12-29T09:24:02.965Z,0.90
2017-12-29T09:26:32.000Z,0.90
2017-12-29T09:28:59.660Z,0.90
2017-12-29T09:31:27.950Z,0.90
2017-12-29T09:33:55.517Z,0.90
2017-12-29T09:36:23.055Z,1.00
2017-12-29T09:38:51.393Z,1.00
2017-12-29T09:41:18.929Z,1.00
2017-12-29T09:43:47.279Z,1.00
2017-12-29T09:46:14.803Z,1.00
2017-12-29T09:48:42.371Z,1.00
2017-12-29T09:51:10.670Z,1.00
2017-12-29T09:53:38.353Z,1.00
2017-12-29T09:56:05.901Z,1.00
2017-12-29T09:58:33.475Z,1.10
2017-12-29T10:01:01.004Z,1.00
2017-12-29T10:03:29.361Z,1.00
2017-12-29T10:05:57.706Z,1.10
2017-12-29T10:08:25.283Z,1.00
2017-12-29T10:10:52.805Z,1.10
2017-12-29T10:13:20.411Z,1.10
2017-12-29T10:15:48.730Z,1.10
2017-12-29T10:18:16.311Z,1.10
2017-12-29T10:20:43.854Z,1.20
2017-12-29T10:23:11.433Z,1.30
2017-12-29T10:25:38.966Z,1.30
2017-12-29T10:28:06.533Z,1.40
2017-12-29T10:30:34.124Z,1.40
2017-12-29T10:33:01.691Z,1.50
2017-12-29T10:35:29.243Z,1.60
2017-12-29T10:37:56.815Z,1.60
2017-12-29T10:40:24.343Z,1.70
2017-12-29T10:42:51.907Z,1.70
2017-12-29T10:45:19.434Z,1.80
2017-12-29T10:47:47.766Z,1.90
2017-12-29T10:50:15.287Z,1.90
2017-12-29T10:52:42.855Z,1.90
2017-12-29T10:55:10.379Z,1.90
2017-12-29T10:57:38.710Z,2.00
2017-12-29T11:00:06.236Z,2.00
2017-12-29T11:02:33.813Z,2.30
2017-12-29T11:05:01.338Z,2.60
2017-12-29T11:07:29.676Z,3.30
2017-12-29T11:09:57.203Z,3.30
2017-12-29T11:12:24.789Z,3.60
2017-12-29T11:14:52.319Z,3.90
2017-12-29T11:17:19.893Z,4.30
2017-12-29T11:19:47.443Z,4.50
2017-12-29T11:22:15.015Z,4.70
2017-12-29T11:24:42.543Z,4.80
2017-12-29T11:27:10.111Z,5.00
2017-12-29T11:29:37.635Z,5.00
2017-12-29T11:32:05.208Z,5.10
2017-12-29T11:34:33.494Z,5.10
2017-12-29T11:37:01.058Z,5.10
2017-12-29T11:39:28.591Z,5.20
2017-12-29T11:41:56.930Z,5.10
2017-12-29T11:44:24.450Z,5.10
2017-12-29T11:46:52.010Z,5.10
2017-12-29T11:49:19.545Z,5.10
2017-12-29T11:51:47.891Z,5.30
2017-12-29T11:54:16.418Z,5.30
2017-12-29T11:56:44.756Z,5.40
2017-12-29T11:59:12.284Z,5.40
2017-12-29T12:01:39.856Z,5.30
2017-12-29T12:04:07.388Z,5.40
2017-12-29T12:06:34.965Z,5.50
2017-12-29T12:09:02.492Z,5.50
2017-12-29T12:11:30.827Z,5.60
2017-12-29T12:13:58.363Z,5.60
2017-12-29T12:16:25.935Z,5.50
2017-12-29T12:18:53.471Z,5.50
2017-12-29T12:21:21.062Z,5.40
2017-12-29T12:23:48.591Z,5.40
2017-12-29T12:26:16.177Z,5.50
2017-12-29T12:28:43.702Z,5.40
2017-12-29T12:31:11.249Z,5.20
2017-12-29T12:33:39.769Z,4.70
2017-12-29T12:36:07.317Z,4.70
2017-12-29T12:38:34.896Z,4.40
2017-12-29T12:41:02.483Z,4.20
2017-12-29T12:43:30.031Z,4.00
2017-12-29T12:45:57.555Z,3.70
2017-12-29T12:48:25.120Z,3.40
2017-12-29T12:50:52.646Z,3.20
2017-12-29T12:53:20.978Z,2.90
2017-12-29T12:55:48.505Z,2.90
2017-12-29T12:58:16.080Z,2.90
2017-12-29T13:00:43.605Z,2.80
2017-12-29T13:03:11.931Z,2.60
2017-12-29T13:05:39.458Z,2.60
2017-12-29T13:08:07.030Z,2.60
2017-12-29T13:10:34.555Z,2.60
2017-12-29T13:13:02.892Z,2.50
2017-12-29T13:15:30.426Z,2.50
2017-12-29T13:17:57.987Z,2.50
2017-12-29T13:20:25.513Z,2.50
2017-12-29T13:22:53.851Z,2.40
2017-12-29T13:25:21.377Z,2.40
2017-12-29T13:27:48.947Z,2.40
2017-12-29T13:30:16.479Z,2.40
2017-12-29T13:32:44.048Z,2.40
2017-12-29T13:35:11.568Z,2.30
2017-12-29T13:37:39.144Z,2.30
2017-12-29T13:40:07.426Z,2.30
2017-12-29T13:42:35.756Z,2.20
2017-12-29T13:45:03.275Z,2.20
2017-12-29T13:47:30.850Z,2.20
2017-12-29T13:49:58.380Z,2.20
2017-12-29T13:52:26.713Z,2.10
2017-12-29T13:54:54.242Z,2.20
2017-12-29T13:57:21.824Z,2.10
2017-12-29T13:59:49.352Z,2.10
2017-12-29T14:02:16.924Z,2.10
2017-12-29T14:04:44.498Z,2.10
2017-12-29T14:07:12.058Z,2.10
2017-12-29T14:09:39.584Z,2.10
2017-12-29T14:12:07.145Z,2.10
2017-12-29T14:14:34.676Z,2.00
2017-12-29T14:17:03.034Z,2.00
2017-12-29T14:19:30.563Z,2.00
2017-12-29T14:21:58.127Z,2.00
2017-12-29T14:24:25.658Z,2.00
2017-12-29T14:26:53.227Z,1.90
2017-12-29T14:29:20.748Z,2.00
2017-12-29T14:31:48.312Z,1.90
2017-12-29T14:34:16.604Z,1.90
2017-12-29T14:36:44.934Z,1.90
2017-12-29T14:39:12.458Z,1.90
2017-12-29T14:41:40.037Z,1.90
2017-12-29T14:44:07.562Z,1.90
2017-12-29T14:46:35.935Z,1.80
2017-12-29T14:49:04.221Z,1.90
2017-12-29T14:51:31.840Z,1.80
2017-12-29T14:53:59.458Z,1.80
2017-12-29T14:56:27.083Z,1.80
2017-12-29T14:58:55.413Z,1.80
2017-12-29T15:01:22.980Z,1.80
2017-12-29T15:03:50.498Z,1.80
2017-12-29T15:06:18.827Z,1.70
2017-12-29T15:08:46.360Z,1.70
2017-12-29T15:11:13.968Z,1.70
2017-12-29T15:13:41.541Z,1.70
2017-12-29T15:16:09.917Z,1.70
2017-12-29T15:18:38.254Z,1.60
2017-12-29T15:21:05.828Z,1.70
2017-12-29T15:23:33.362Z,1.60
2017-12-29T15:26:00.975Z,1.60
2017-12-29T15:28:29.313Z,1.60
2017-12-29T15:30:56.925Z,1.60
2017-12-29T15:33:25.217Z,1.60
2017-12-29T15:35:52.830Z,1.60
2017-12-29T15:38:20.352Z,1.60
2017-12-29T15:40:53.655Z,1.60
2017-12-29T15:43:21.234Z,1.60
2017-12-29T15:45:48.844Z,1.60
2017-12-29T15:48:16.411Z,1.60
2017-12-29T15:50:44.030Z,1.60
2017-12-29T15:53:11.599Z,1.50
2017-12-29T15:55:39.210Z,1.50
2017-12-29T15:58:06.733Z,1.50
2017-12-29T16:00:35.985Z,1.50
2017-12-29T16:03:03.554Z,1.50
2017-12-29T16:05:31.162Z,1.50
2017-12-29T16:07:59.510Z,1.50
2017-12-29T16:10:28.580Z,1.50
2017-12-29T16:12:56.113Z,1.50
2017-12-29T16:15:23.721Z,1.50
2017-12-29T16:17:51.252Z,1.50
2017-12-29T16:20:18.819Z,1.50
2017-12-29T16:22:46.391Z,1.50
2017-12-29T16:25:14.011Z,1.40
2017-12-29T16:27:41.590Z,1.50
2017-12-29T16:30:09.157Z,1.40
2017-12-29T16:32:36.683Z,1.40
2017-12-29T16:35:04.253Z,1.40
2017-12-29T16:37:31.822Z,1.40
2017-12-29T16:39:59.467Z,1.40
2017-12-29T16:42:27.034Z,1.40
2017-12-29T16:44:54.599Z,1.40
2017-12-29T16:47:22.126Z,1.40
2017-12-29T16:49:50.507Z,1.40
2017-12-29T16:52:18.844Z,1.40
2017-12-29T16:54:46.461Z,1.40
2017-12-29T16:57:13.983Z,1.40
2017-12-29T16:59:41.601Z,1.40
2017-12-29T17:02:09.173Z,1.40
2017-12-29T17:04:36.776Z,1.40
2017-12-29T17:07:05.115Z,1.30
2017-12-29T17:09:32.680Z,1.40
2017-12-29T17:12:00.246Z,1.30
2017-12-29T17:14:27.834Z,1.40
2017-12-29T17:16:56.167Z,1.40
2017-12-29T17:19:23.740Z,1.30
2017-12-29T17:21:51.305Z,1.30
2017-12-29T17:24:18.913Z,1.30
2017-12-29T17:26:46.443Z,1.40
2017-12-29T17:29:14.053Z,1.30
2017-12-29T17:31:41.575Z,1.30
2017-12-29T17:34:09.959Z,1.30
2017-12-29T17:36:38.308Z,1.30
2017-12-29T17:39:05.876Z,1.30
2017-12-29T17:41:33.400Z,1.30
2017-12-29T17:44:01.016Z,1.30
2017-12-29T17:46:29.363Z,1.30
2017-12-29T17:48:56.925Z,1.30
2017-12-29T17:51:24.503Z,1.30
2017-12-29T17:53:52.843Z,1.30
2017-12-29T17:56:20.366Z,1.30
2017-12-29T17:58:47.940Z,1.30
2017-12-29T18:01:15.485Z,1.30
2017-12-29T18:03:43.058Z,1.30
2017-12-29T18:06:10.583Z,1.30
2017-12-29T18:08:38.929Z,1.30
2017-12-29T18:11:06.464Z,1.30
2017-12-29T18:13:34.073Z,1.30
2017-12-29T18:16:02.423Z,1.30
2017-12-29T18:18:29.986Z,1.30
2017-12-29T18:20:58.602Z,1.30
2017-12-29T18:23:26.977Z,1.30
2017-12-29T18:25:55.272Z,1.30
2017-12-29T18:28:22.853Z,1.30
2017-12-29T18:30:50.376Z,1.30
2017-12-29T18:33:18.749Z,1.30
2017-12-29T18:35:47.097Z,1.20
2017-12-29T18:38:14.705Z,1.20
2017-12-29T18:40:43.038Z,1.30
2017-12-29T18:43:10.649Z,1.20
2017-12-29T18:45:38.236Z,1.30
2017-12-29T18:48:05.853Z,1.30
2017-12-29T18:50:34.198Z,1.30
2017-12-29T18:53:01.808Z,1.30
2017-12-29T18:55:29.339Z,1.30
2017-12-29T18:57:57.725Z,1.30
2017-12-29T19:00:26.062Z,1.30
2017-12-29T19:02:53.759Z,1.20
2017-12-29T19:05:21.327Z,1.30
2017-12-29T19:07:49.714Z,1.20
2017-12-29T19:10:18.132Z,1.30
2017-12-29T19:12:45.749Z,1.30
2017-12-29T19:15:14.039Z,1.30
2017-12-29T19:17:41.660Z,1.30
2017-12-29T19:20:09.193Z,1.20
2017-12-29T19:22:36.814Z,1.30
2017-12-29T19:25:05.158Z,1.30
2017-12-29T19:27:32.733Z,1.30
2017-12-29T19:30:01.091Z,1.20
2017-12-29T19:32:28.711Z,1.20
2017-12-29T19:34:56.268Z,1.30
2017-12-29T19:37:23.887Z,1.20
2017-12-29T19:39:51.539Z,1.30
2017-12-29T19:42:19.075Z,1.30
2017-12-29T19:44:46.703Z,1.20
2017-12-29T19:47:14.280Z,1.30
2017-12-29T19:49:41.861Z,1.30
2017-12-29T19:52:09.439Z,1.20
2017-12-29T19:54:37.009Z,1.20
2017-12-29T19:57:05.237Z,1.20
2017-12-29T19:59:32.815Z,1.20
2017-12-29T20:02:00.432Z,1.20
2017-12-29T20:04:28.767Z,1.20
2017-12-29T20:06:56.391Z,1.20
2017-12-29T20:09:23.974Z,1.30
2017-12-29T20:11:51.629Z,1.30
2017-12-29T20:14:19.214Z,1.30
2017-12-29T20:16:46.834Z,1.30
2017-12-29T20:19:14.419Z,1.30
2017-12-29T20:21:42.041Z,1.30
2017-12-29T20:24:09.604Z,1.30
2017-12-29T20:26:37.223Z,1.30
2017-12-29T20:29:04.802Z,1.20
2017-12-29T20:31:33.238Z,1.20
2017-12-29T20:34:00.859Z,1.20
2017-12-29T20:36:29.202Z,1.20
2017-12-29T20:38:56.813Z,1.20
2017-12-29T20:41:24.395Z,1.20
2017-12-29T20:43:52.020Z,1.30
2017-12-29T20:46:20.357Z,1.30
2017-12-29T20:48:47.970Z,1.30
2017-12-29T20:51:15.553Z,1.30
2017-12-29T20:53:43.182Z,1.30
2017-12-29T20:56:19.068Z,1.20
2017-12-29T20:58:46.692Z,1.20
2017-12-29T21:01:15.038Z,1.20
2017-12-29T21:03:42.663Z,1.20
2017-12-29T21:06:10.237Z,1.20
2017-12-29T21:08:37.814Z,1.20
2017-12-29T21:11:05.440Z,1.20
2017-12-29T21:13:33.078Z,1.20
2017-12-29T21:16:01.958Z,1.20
2017-12-29T21:18:30.299Z,1.20
2017-12-29T21:20:57.918Z,1.20
2017-12-29T21:23:27.526Z,1.20
2017-12-29T21:25:55.147Z,1.20
2017-12-29T21:28:23.199Z,1.20
2017-12-29T21:30:50.815Z,1.20
2017-12-29T21:33:18.396Z,1.20
2017-12-29T21:35:46.018Z,1.20
2017-12-29T21:38:14.363Z,1.20
2017-12-29T21:40:41.987Z,1.20
2017-12-29T21:43:09.573Z,1.20
2017-12-29T21:45:37.192Z,1.20
2017-12-29T21:48:05.534Z,1.20
2017-12-29T21:50:33.913Z,1.20
2017-12-29T21:53:01.494Z,1.20
2017-12-29T21:55:29.875Z,1.20
2017-12-29T21:57:58.220Z,1.20
2017-12-29T22:00:25.848Z,1.20
2017-12-29T22:02:53.426Z,1.20
2017-12-29T22:05:21.047Z,1.20
2017-12-29T22:07:48.629Z,1.20
2017-12-29T22:10:16.257Z,1.20
2017-12-29T22:12:44.600Z,1.10
2017-12-29T22:15:12.228Z,1.20
2017-12-29T22:17:39.808Z,1.20
2017-12-29T22:20:07.431Z,1.20
2017-12-29T22:22:35.017Z,1.20
2017-12-29T22:25:02.651Z,1.20
2017-12-29T22:27:30.228Z,1.20
2017-12-29T22:29:57.847Z,1.20
2017-12-29T22:32:26.196Z,1.20
2017-12-29T22:34:53.817Z,1.20
2017-12-29T22:37:21.397Z,1.20
2017-12-29T22:39:49.022Z,1.20
2017-12-29T22:42:17.363Z,1.20
2017-12-29T22:44:44.983Z,1.20
2017-12-29T22:47:12.562Z,1.20
2017-12-29T22:49:40.177Z,1.20
2017-12-29T22:52:08.517Z,1.20
2017-12-29T22:54:36.160Z,1.20
2017-12-29T22:57:03.746Z,1.20
2017-12-29T22:59:31.362Z,1.30
2017-12-29T23:01:58.942Z,1.20
2017-12-29T23:04:26.559Z,1.30
2017-12-29T23:06:54.899Z,1.30
2017-12-29T23:09:22.524Z,1.30
2017-12-29T23:11:50.104Z,1.30
2017-12-29T23:14:17.724Z,1.30
2017-12-29T23:16:46.067Z,1.30
2017-12-29T23:19:13.683Z,1.30
2017-12-29T23:21:41.258Z,1.30
2017-12-29T23:24:08.888Z,1.30
2017-12-29T23:26:37.222Z,1.30
2017-12-29T23:29:04.889Z,1.30
2017-12-29T23:31:32.463Z,1.30
2017-12-29T23:34:00.083Z,1.30
2017-12-29T23:36:27.671Z,1.30
2017-12-29T23:38:55.292Z,1.30
2017-12-29T23:41:22.868Z,1.30
2017-12-29T23:43:50.492Z,1.30
2017-12-29T23:46:18.832Z,1.30
2017-12-29T23:48:46.441Z,1.30
2017-12-29T23:51:14.020Z,1.40
2017-12-29T23:53:41.624Z,1.40
2017-12-29T23:56:09.207Z,1.40
2017-12-29T23:58:37.584Z,1.40
